createdAt,value
2023-03-26T00:02:07.613Z,-73
2023-03-26T00:04:35.775Z,-75
2023-03-26T00:07:05.106Z,-73
2023-03-26T00:09:33.201Z,-58
2023-03-26T00:12:01.295Z,-60
2023-03-26T00:14:30.348Z,-58
2023-03-26T00:16:59.868Z,-58
2023-03-26T00:19:30.172Z,-58
2023-03-26T00:21:58.304Z,-58
2023-03-26T00:24:29.495Z,-59
2023-03-26T00:26:59.604Z,-59
2023-03-26T00:29:28.721Z,-59
2023-03-26T00:31:56.914Z,-59
2023-03-26T00:34:26.911Z,-60
2023-03-26T00:36:55.094Z,-59
2023-03-26T00:39:24.414Z,-59
2023-03-26T00:41:54.565Z,-58
2023-03-26T00:44:23.289Z,-58
2023-03-26T00:46:51.502Z,-58
2023-03-26T00:49:19.661Z,-58
2023-03-26T00:51:49.239Z,-58
2023-03-26T00:54:17.415Z,-57
2023-03-26T00:56:45.617Z,-59
2023-03-26T00:59:13.821Z,-59
2023-03-26T01:01:42.183Z,-56
2023-03-26T01:04:31.282Z,-58
2023-03-26T01:07:05.765Z,-57
2023-03-26T01:09:42.761Z,-58
2023-03-26T01:12:17.079Z,-58
2023-03-26T01:14:47.012Z,-58
2023-03-26T01:17:16.746Z,-59
2023-03-26T01:19:54.401Z,-60
2023-03-26T01:22:26.608Z,-59
2023-03-26T01:24:56.615Z,-58
2023-03-26T01:27:38.842Z,-57
2023-03-26T01:30:18.782Z,-58
2023-03-26T01:33:02.415Z,-58
2023-03-26T01:35:42.688Z,-58
2023-03-26T01:38:25.605Z,-58
2023-03-26T01:41:05.655Z,-58
2023-03-26T01:43:44.636Z,-59
2023-03-26T01:46:17.042Z,-60
2023-03-26T01:48:48.106Z,-58
2023-03-26T01:51:29.914Z,-58
2023-03-26T01:53:59.855Z,-58
2023-03-26T01:56:39.613Z,-57
2023-03-26T01:59:32.623Z,-58
2023-03-26T02:02:11.990Z,-58
2023-03-26T02:04:53.402Z,-61
2023-03-26T02:07:29.069Z,-59
2023-03-26T02:10:06.574Z,-60
2023-03-26T02:12:37.561Z,-59
2023-03-26T02:15:07.686Z,-57
2023-03-26T02:17:36.172Z,-58
2023-03-26T02:20:06.040Z,-59
2023-03-26T02:22:40.671Z,-57
2023-03-26T02:25:11.706Z,-58
2023-03-26T02:27:42.039Z,-59
2023-03-26T02:30:14.902Z,-59
2023-03-26T02:32:44.678Z,-59
2023-03-26T02:35:14.107Z,-58
2023-03-26T02:37:46.864Z,-59
2023-03-26T02:40:15.970Z,-58
2023-03-26T02:42:45.557Z,-59
2023-03-26T02:45:13.931Z,-61
2023-03-26T02:47:43.338Z,-59
2023-03-26T02:50:12.074Z,-58
2023-03-26T02:52:40.522Z,-58
2023-03-26T02:55:09.758Z,-62
2023-03-26T02:57:37.917Z,-59
2023-03-26T03:00:15.924Z,-58
2023-03-26T03:02:47.760Z,-60
2023-03-26T03:05:18.027Z,-60
2023-03-26T03:07:46.517Z,-60
2023-03-26T03:10:15.670Z,-61
2023-03-26T03:12:44.136Z,-59
2023-03-26T03:15:15.044Z,-60
2023-03-26T03:17:43.155Z,-60
2023-03-26T03:20:12.233Z,-61
2023-03-26T03:22:41.124Z,-60
2023-03-26T03:25:14.199Z,-61
2023-03-26T03:27:43.112Z,-58
2023-03-26T03:30:15.304Z,-58
2023-03-26T03:32:43.484Z,-59
2023-03-26T03:35:11.627Z,-59
2023-03-26T03:37:39.745Z,-60
2023-03-26T03:40:10.857Z,-58
2023-03-26T03:42:39.115Z,-59
2023-03-26T03:45:08.893Z,-58
2023-03-26T03:47:38.423Z,-58
2023-03-26T03:50:08.969Z,-58
2023-03-26T03:52:37.151Z,-58
2023-03-26T03:55:06.330Z,-58
2023-03-26T03:57:34.640Z,-59
2023-03-26T04:00:05.683Z,-57
2023-03-26T04:02:35.554Z,-56
2023-03-26T04:05:07.284Z,-59
2023-03-26T04:07:35.492Z,-59
2023-03-26T04:10:03.893Z,-59
2023-03-26T04:12:32.874Z,-58
2023-03-26T04:15:01.044Z,-58
2023-03-26T04:17:30.414Z,-59
2023-03-26T04:20:06.962Z,-59
2023-03-26T04:22:37.109Z,-59
2023-03-26T04:25:05.900Z,-58
2023-03-26T04:27:36.756Z,-56
2023-03-26T04:30:08.178Z,-58
2023-03-26T04:32:38.597Z,-59
2023-03-26T04:35:07.707Z,-59
2023-03-26T04:37:40.661Z,-59
2023-03-26T04:40:14.931Z,-57
2023-03-26T04:42:46.285Z,-59
2023-03-26T04:45:17.519Z,-57
2023-03-26T04:47:46.267Z,-57
2023-03-26T04:50:14.590Z,-56
2023-03-26T04:52:45.395Z,-58
2023-03-26T04:55:25.412Z,-56
2023-03-26T04:57:59.807Z,-57
2023-03-26T05:00:28.375Z,-59
2023-03-26T05:02:57.814Z,-57
2023-03-26T05:05:26.915Z,-57
2023-03-26T05:07:56.754Z,-57
2023-03-26T05:10:25.277Z,-57
2023-03-26T05:12:53.503Z,-59
2023-03-26T05:15:21.975Z,-57
2023-03-26T05:17:50.200Z,-58
2023-03-26T05:20:21.607Z,-59
2023-03-26T05:22:50.516Z,-60
2023-03-26T05:25:20.782Z,-59
2023-03-26T05:27:49.342Z,-58
2023-03-26T05:30:21.304Z,-57
2023-03-26T05:32:50.343Z,-59
2023-03-26T05:35:19.405Z,-58
2023-03-26T05:37:49.622Z,-56
2023-03-26T05:40:20.065Z,-58
2023-03-26T05:42:48.644Z,-58
2023-03-26T05:45:16.884Z,-58
2023-03-26T05:47:45.242Z,-59
2023-03-26T05:50:13.671Z,-59
2023-03-26T05:52:41.839Z,-58
2023-03-26T05:55:11.278Z,-58
2023-03-26T05:57:41.930Z,-59
2023-03-26T06:00:12.205Z,-58
2023-03-26T06:02:42.165Z,-58
2023-03-26T06:05:12.469Z,-58
2023-03-26T06:07:40.608Z,-59
2023-03-26T06:10:10.666Z,-58
2023-03-26T06:12:47.686Z,-59
2023-03-26T06:15:16.001Z,-60
2023-03-26T06:17:44.128Z,-59
2023-03-26T06:20:14.137Z,-59
2023-03-26T06:22:42.535Z,-59
2023-03-26T06:25:10.867Z,-61
2023-03-26T06:27:38.981Z,-58
2023-03-26T06:30:10.522Z,-60
2023-03-26T06:32:38.623Z,-60
2023-03-26T06:35:07.766Z,-59
2023-03-26T06:37:36.126Z,-59
2023-03-26T06:40:04.618Z,-58
2023-03-26T06:43:08.926Z,-59
2023-03-26T06:45:22.209Z,-57
2023-03-26T06:47:50.512Z,-61
2023-03-26T06:50:18.977Z,-60
2023-03-26T06:52:47.199Z,-61
2023-03-26T06:55:15.371Z,-60
2023-03-26T06:57:45.273Z,-60
2023-03-26T07:00:15.439Z,-61
2023-03-26T07:02:45.187Z,-59
2023-03-26T07:05:13.973Z,-59
2023-03-26T07:07:46.412Z,-60
2023-03-26T07:10:15.406Z,-63
2023-03-26T07:12:44.402Z,-60
2023-03-26T07:15:12.746Z,-59
2023-03-26T07:17:41.271Z,-61
2023-03-26T07:20:13.163Z,-60
2023-03-26T07:22:42.574Z,-60
2023-03-26T07:25:13.934Z,-60
2023-03-26T07:28:00.178Z,-59
2023-03-26T07:30:37.484Z,-59
2023-03-26T07:33:16.825Z,-59
2023-03-26T07:35:56.576Z,-59
2023-03-26T07:38:46.217Z,-59
2023-03-26T07:41:24.599Z,-59
2023-03-26T07:44:24.847Z,-58
2023-03-26T07:46:54.132Z,-59
2023-03-26T07:49:23.396Z,-60
2023-03-26T07:51:53.763Z,-62
2023-03-26T07:54:22.574Z,-75
2023-03-26T07:56:58.990Z,-72
2023-03-26T07:59:36.327Z,-73
2023-03-26T08:03:08.606Z,-72
2023-03-26T08:05:48.979Z,-73
2023-03-26T08:08:30.445Z,-72
2023-03-26T08:11:15.853Z,-73
2023-03-26T08:14:04.194Z,-72
2023-03-26T08:16:44.346Z,-71
2023-03-26T08:19:40.709Z,-72
2023-03-26T08:22:17.801Z,-74
2023-03-26T08:25:11.650Z,-73
2023-03-26T08:27:43.226Z,-74
2023-03-26T08:30:20.186Z,-74
2023-03-26T08:32:57.921Z,-73
2023-03-26T08:35:28.559Z,-73
2023-03-26T08:37:56.789Z,-72
2023-03-26T08:41:05.172Z,-73
2023-03-26T08:44:17.151Z,-72
2023-03-26T08:47:28.435Z,-73
2023-03-26T08:50:36.467Z,-74
2023-03-26T08:53:36.673Z,-74
2023-03-26T08:56:20.522Z,-74
2023-03-26T08:59:33.064Z,-73
2023-03-26T09:02:26.879Z,-74
2023-03-26T09:05:30.047Z,-74
2023-03-26T09:08:54.091Z,-74
2023-03-26T09:12:22.224Z,-73
2023-03-26T09:15:41.840Z,-73
2023-03-26T09:19:03.867Z,-72
2023-03-26T09:22:18.408Z,-72
2023-03-26T09:25:25.427Z,-73
2023-03-26T09:28:36.618Z,-72
2023-03-26T09:32:12.783Z,-71
2023-03-26T09:35:08.388Z,-74
2023-03-26T09:37:58.322Z,-73
2023-03-26T09:40:39.591Z,-73
2023-03-26T09:43:43.205Z,-73
2023-03-26T09:46:30.890Z,-73
2023-03-26T09:49:36.163Z,-73
2023-03-26T09:52:27.734Z,-74
2023-03-26T09:55:20.166Z,-72
2023-03-26T09:58:13.549Z,-72
2023-03-26T10:00:54.232Z,-71
2023-03-26T10:03:40.860Z,-71
2023-03-26T10:06:27.188Z,-71
2023-03-26T10:09:19.301Z,-71
2023-03-26T10:12:23.369Z,-72
2023-03-26T10:15:08.455Z,-72
2023-03-26T10:17:56.966Z,-71
2023-03-26T10:20:54.442Z,-71
2023-03-26T10:23:43.419Z,-72
2023-03-26T10:26:35.133Z,-72
2023-03-26T10:30:04.693Z,-71
2023-03-26T10:32:45.705Z,-72
2023-03-26T10:35:32.758Z,-73
2023-03-26T10:38:16.610Z,-71
2023-03-26T10:40:59.498Z,-71
2023-03-26T10:44:16.840Z,-72
2023-03-26T10:47:28.175Z,-71
2023-03-26T10:50:27.260Z,-72
2023-03-26T10:53:02.106Z,-71
2023-03-26T10:55:38.036Z,-71
2023-03-26T10:58:18.286Z,-71
2023-03-26T11:00:54.572Z,-73
2023-03-26T11:03:47.035Z,-72
2023-03-26T11:06:31.764Z,-71
2023-03-26T11:09:19.940Z,-73
2023-03-26T11:12:00.238Z,-72
2023-03-26T11:14:39.779Z,-74
2023-03-26T11:17:39.404Z,-70
2023-03-26T11:20:18.236Z,-69
2023-03-26T11:23:12.891Z,-70
2023-03-26T11:25:58.441Z,-70
2023-03-26T11:29:03.267Z,-70
2023-03-26T11:32:01.865Z,-69
2023-03-26T11:34:38.110Z,-71
2023-03-26T11:37:17.893Z,-70
2023-03-26T11:39:53.456Z,-67
2023-03-26T11:42:25.628Z,-68
2023-03-26T11:44:59.534Z,-69
2023-03-26T11:47:39.777Z,-69
2023-03-26T11:50:17.491Z,-68
2023-03-26T11:52:47.069Z,-69
2023-03-26T11:55:17.820Z,-71
2023-03-26T11:57:54.703Z,-69
2023-03-26T12:00:27.414Z,-70
2023-03-26T12:02:59.927Z,-69
2023-03-26T12:05:33.397Z,-69
2023-03-26T12:08:04.219Z,-69
2023-03-26T12:10:38.666Z,-69
2023-03-26T12:13:30.335Z,-72
2023-03-26T12:16:15.782Z,-75
2023-03-26T12:18:46.530Z,-74
2023-03-26T12:21:20.463Z,-77
2023-03-26T12:24:01.321Z,-74
2023-03-26T12:26:44.863Z,-71
2023-03-26T12:29:15.780Z,-71
2023-03-26T12:31:56.704Z,-72
2023-03-26T12:34:34.568Z,-70
2023-03-26T12:37:04.724Z,-73
2023-03-26T12:40:06.853Z,-72
2023-03-26T12:44:48.503Z,-75
2023-03-26T12:45:24.134Z,-76
2023-03-26T12:48:00.105Z,-75
2023-03-26T12:50:43.667Z,-74
2023-03-26T12:53:39.875Z,-72
2023-03-26T12:56:21.801Z,-73
2023-03-26T12:59:21.740Z,-73
2023-03-26T13:02:06.790Z,-68
2023-03-26T13:05:06.510Z,-75
2023-03-26T13:07:58.128Z,-70
2023-03-26T13:10:49.435Z,-68
2023-03-26T13:14:14.768Z,-68
2023-03-26T13:16:53.982Z,-70
2023-03-26T13:19:32.556Z,-75
2023-03-26T13:22:22.247Z,-74
2023-03-26T13:25:03.979Z,-74
2023-03-26T13:27:47.465Z,-74
2023-03-26T13:30:28.724Z,-74
2023-03-26T13:33:27.618Z,-69
2023-03-26T13:36:21.832Z,-73
2023-03-26T13:39:09.409Z,-72
2023-03-26T13:42:07.108Z,-72
2023-03-26T13:44:51.213Z,-75
2023-03-26T13:47:27.861Z,-75
2023-03-26T13:50:04.332Z,-73
2023-03-26T13:52:42.842Z,-74
2023-03-26T13:55:25.768Z,-72
2023-03-26T13:58:04.880Z,-74
2023-03-26T14:00:54.468Z,-71
2023-03-26T14:03:40.630Z,-71
2023-03-26T14:06:23.802Z,-74
2023-03-26T14:08:59.677Z,-69
2023-03-26T14:11:46.591Z,-70
2023-03-26T14:14:24.615Z,-72
2023-03-26T14:16:59.151Z,-70
2023-03-26T14:20:11.729Z,-71
2023-03-26T14:22:52.113Z,-69
2023-03-26T14:25:48.259Z,-70
2023-03-26T14:28:49.204Z,-73
2023-03-26T14:31:29.427Z,-73
2023-03-26T14:34:17.815Z,-65
2023-03-26T14:37:16.783Z,-64
2023-03-26T14:40:21.912Z,-65
2023-03-26T14:42:58.860Z,-66
2023-03-26T14:45:46.803Z,-71
2023-03-26T14:48:44.615Z,-66
2023-03-26T14:51:31.856Z,-69
2023-03-26T14:54:08.371Z,-70
2023-03-26T14:57:13.625Z,-70
2023-03-26T15:00:38.120Z,-68
2023-03-26T15:04:09.968Z,-73
2023-03-26T15:07:31.173Z,-74
2023-03-26T15:10:55.219Z,-73
2023-03-26T15:14:02.812Z,-68
2023-03-26T15:17:34.376Z,-68
2023-03-26T15:20:49.969Z,-67
2023-03-26T15:23:58.221Z,-70
2023-03-26T15:27:24.540Z,-71
2023-03-26T15:30:47.599Z,-67
2023-03-26T15:34:00.365Z,-71
2023-03-26T15:37:13.464Z,-74
2023-03-26T15:40:12.692Z,-74
2023-03-26T15:43:01.299Z,-73
2023-03-26T15:45:37.608Z,-67
2023-03-26T15:48:56.296Z,-71
2023-03-26T15:51:46.326Z,-71
2023-03-26T15:54:25.905Z,-71
2023-03-26T15:57:17.516Z,-71
2023-03-26T16:00:12.303Z,-78
2023-03-26T16:02:53.490Z,-79
2023-03-26T16:05:41.876Z,-75
2023-03-26T16:08:29.133Z,-77
2023-03-26T16:10:59.948Z,-70
2023-03-26T16:13:40.610Z,-67
2023-03-26T16:16:52.855Z,-67
2023-03-26T16:19:43.761Z,-72
2023-03-26T16:22:42.900Z,-70
2023-03-26T16:25:28.831Z,-72
2023-03-26T16:28:29.505Z,-70
2023-03-26T16:31:37.778Z,-71
2023-03-26T16:34:47.537Z,-75
2023-03-26T16:37:43.654Z,-72
2023-03-26T16:40:36.151Z,-71
2023-03-26T16:43:40.593Z,-69
2023-03-26T16:46:20.711Z,-71
2023-03-26T16:48:59.859Z,-70
2023-03-26T16:51:50.727Z,-73
2023-03-26T16:54:30.262Z,-69
2023-03-26T16:57:11.204Z,-71
2023-03-26T17:00:39.687Z,-76
2023-03-26T17:03:33.912Z,-78
2023-03-26T17:06:53.260Z,-77
2023-03-26T17:09:34.989Z,-73
2023-03-26T17:12:19.051Z,-76
2023-03-26T17:15:12.517Z,-75
2023-03-26T17:18:04.729Z,-73
2023-03-26T17:20:41.864Z,-73
2023-03-26T17:23:31.512Z,-75
2023-03-26T17:26:11.275Z,-74
2023-03-26T17:28:56.158Z,-75
2023-03-26T17:31:39.415Z,-76
2023-03-26T17:34:46.517Z,-75
2023-03-26T17:37:45.731Z,-73
2023-03-26T17:40:56.058Z,-75
2023-03-26T17:43:52.646Z,-75
2023-03-26T17:46:33.071Z,-73
2023-03-26T17:49:12.508Z,-75
2023-03-26T17:51:49.590Z,-74
2023-03-26T17:54:27.911Z,-73
2023-03-26T17:57:04.332Z,-72
2023-03-26T17:59:33.913Z,-73
2023-03-26T18:02:06.903Z,-73
2023-03-26T18:04:41.768Z,-72
2023-03-26T18:08:07.889Z,-72
2023-03-26T18:11:16.134Z,-74
2023-03-26T18:14:30.957Z,-73
2023-03-26T18:17:02.118Z,-72
2023-03-26T18:19:31.840Z,-74
2023-03-26T18:22:05.159Z,-73
2023-03-26T18:24:38.852Z,-74
2023-03-26T18:27:12.643Z,-74
2023-03-26T18:29:47.012Z,-74
2023-03-26T18:32:23.095Z,-73
2023-03-26T18:34:57.802Z,-74
2023-03-26T18:37:29.847Z,-74
2023-03-26T18:40:07.911Z,-72
2023-03-26T18:42:37.575Z,-73
2023-03-26T18:45:17.389Z,-73
2023-03-26T18:47:47.620Z,-75
2023-03-26T18:50:22.729Z,-72
2023-03-26T18:52:51.056Z,-74
2023-03-26T18:55:19.193Z,-74
2023-03-26T18:57:51.735Z,-73
2023-03-26T19:03:13.482Z,-74
2023-03-26T19:05:42.536Z,-75
2023-03-26T19:08:12.217Z,-74
2023-03-26T19:10:42.443Z,-75
2023-03-26T19:13:17.222Z,-74
2023-03-26T19:15:49.287Z,-74
2023-03-26T19:18:24.158Z,-73
2023-03-26T19:20:59.051Z,-74
2023-03-26T19:23:34.828Z,-73
2023-03-26T19:26:07.293Z,-74
2023-03-26T19:28:39.326Z,-75
2023-03-26T19:31:23.647Z,-73
2023-03-26T19:34:01.082Z,-76
2023-03-26T19:36:34.527Z,-74
2023-03-26T19:39:21.620Z,-75
2023-03-26T19:41:55.632Z,-74
2023-03-26T19:44:28.926Z,-73
2023-03-26T19:47:06.501Z,-74
2023-03-26T19:49:50.395Z,-73
2023-03-26T19:52:25.818Z,-74
2023-03-26T19:55:00.055Z,-74
2023-03-26T19:57:34.882Z,-74
2023-03-26T20:00:05.037Z,-74
2023-03-26T20:02:33.379Z,-73
2023-03-26T20:05:04.513Z,-73
2023-03-26T20:07:35.570Z,-73
2023-03-26T20:10:06.387Z,-74
2023-03-26T20:12:34.534Z,-72
2023-03-26T20:15:03.085Z,-70
2023-03-26T20:17:34.673Z,-68
2023-03-26T20:20:12.127Z,-69
2023-03-26T20:22:40.451Z,-77
2023-03-26T20:25:21.467Z,-78
2023-03-26T20:27:52.911Z,-76
2023-03-26T20:30:36.403Z,-75
2023-03-26T20:33:12.888Z,-76
2023-03-26T20:35:43.530Z,-78
2023-03-26T20:38:12.331Z,-77
2023-03-26T20:40:41.004Z,-79
2023-03-26T20:43:14.462Z,-76
2023-03-26T20:45:43.682Z,-72
2023-03-26T20:48:12.050Z,-73
2023-03-26T20:50:50.387Z,-71
2023-03-26T20:53:20.260Z,-73
2023-03-26T20:55:50.449Z,-73
2023-03-26T20:58:31.451Z,-70
2023-03-26T21:01:02.454Z,-76
2023-03-26T21:03:30.850Z,-76
2023-03-26T21:06:03.280Z,-75
2023-03-26T21:08:35.575Z,-70
2023-03-26T21:11:06.407Z,-69
2023-03-26T21:13:40.522Z,-69
2023-03-26T21:16:13.112Z,-69
2023-03-26T21:18:42.064Z,-69
2023-03-26T21:21:33.309Z,-78
2023-03-26T21:24:12.705Z,-75
2023-03-26T21:26:50.648Z,-76
2023-03-26T21:29:19.352Z,-71
2023-03-26T21:31:48.564Z,-71
2023-03-26T21:34:17.359Z,-70
2023-03-26T21:36:47.710Z,-69
2023-03-26T21:39:16.730Z,-70
2023-03-26T21:41:49.093Z,-68
2023-03-26T21:44:34.579Z,-69
2023-03-26T21:47:03.417Z,-70
2023-03-26T21:49:32.442Z,-70
2023-03-26T21:52:02.841Z,-72
2023-03-26T21:54:33.664Z,-68
2023-03-26T21:57:26.622Z,-67
2023-03-26T22:00:14.744Z,-67
2023-03-26T22:03:02.397Z,-66
2023-03-26T22:05:41.549Z,-66
2023-03-26T22:08:25.331Z,-68
2023-03-26T22:10:53.776Z,-70
2023-03-26T22:13:22.042Z,-70
2023-03-26T22:15:50.276Z,-70
2023-03-26T22:18:21.327Z,-72
2023-03-26T22:20:50.477Z,-70
2023-03-26T22:23:20.826Z,-70
2023-03-26T22:25:48.983Z,-69
2023-03-26T22:28:18.185Z,-70
2023-03-26T22:30:46.569Z,-68
2023-03-26T22:33:17.807Z,-70
2023-03-26T22:35:46.490Z,-70
2023-03-26T22:38:16.962Z,-70
2023-03-26T22:40:46.530Z,-70
2023-03-26T22:43:14.691Z,-69
2023-03-26T22:45:49.842Z,-68
2023-03-26T22:48:18.260Z,-70
2023-03-26T22:50:47.713Z,-70
2023-03-26T22:53:15.944Z,-69
2023-03-26T22:55:44.624Z,-69
2023-03-26T22:58:14.152Z,-70
2023-03-26T23:00:43.034Z,-69
2023-03-26T23:03:11.149Z,-69
2023-03-26T23:05:39.260Z,-70
2023-03-26T23:08:08.013Z,-69
2023-03-26T23:10:36.325Z,-70
2023-03-26T23:13:04.432Z,-70
2023-03-26T23:15:33.893Z,-69
2023-03-26T23:18:02.106Z,-70
2023-03-26T23:20:30.906Z,-70
2023-03-26T23:22:58.997Z,-69
2023-03-26T23:25:28.416Z,-70
2023-03-26T23:27:56.695Z,-58
2023-03-26T23:30:25.656Z,-59
2023-03-26T23:32:57.118Z,-61
2023-03-26T23:35:25.642Z,-59
2023-03-26T23:37:53.924Z,-58
2023-03-26T23:40:22.158Z,-60
2023-03-26T23:42:50.226Z,-59
2023-03-26T23:45:18.471Z,-59
2023-03-26T23:47:46.680Z,-60
2023-03-26T23:50:16.499Z,-59
2023-03-26T23:52:45.711Z,-57
2023-03-26T23:55:13.932Z,-59
2023-03-26T23:57:43.153Z,-60
